Time;durP1;ratioP1;P1;durP2;ratioP2;P2;SDS_P1;SDS_P2;PMS_P1;PMS_P2;Temp;Humidity;BMP_temperature;BMP_pressure;BME280_temperature;BME280_humidity;BME280_pressure;Samples;Min_cycle;Max_cycle;Signal;HPM_P1;HPM_P2
2024/02/13 00:00:11;;;;;;;4.03;2.78;;;8.70;71.30;;;;;;5092192;28;20111;-71
2024/02/13 00:02:56;;;;;;;4.40;3.47;;;8.70;70.80;;;;;;5091034;28;20083;-71
2024/02/13 00:05:24;;;;;;;4.07;2.00;;;8.70;71.20;;;;;;5092514;28;20032;-71
2024/02/13 00:07:50;;;;;;;6.78;3.28;;;8.70;71.30;;;;;;5090990;28;20389;-71
2024/02/13 00:10:16;;;;;;;2.38;1.55;;;8.70;71.40;;;;;;5090719;28;20032;-71
2024/02/13 00:12:42;;;;;;;3.63;1.63;;;8.60;71.30;;;;;;5091143;28;20040;-71
2024/02/13 00:15:14;;;;;;;2.92;2.25;;;8.60;71.10;;;;;;5067550;28;20400;-70
2024/02/13 00:17:41;;;;;;;7.38;2.47;;;8.60;70.60;;;;;;5087430;28;20043;-71
2024/02/13 00:20:08;;;;;;;5.65;3.92;;;8.60;71.30;;;;;;5071159;28;20017;-71
2024/02/13 00:25:19;;;;;;;4.45;2.80;;;8.60;71.30;;;;;;5088706;28;20042;-71
2024/02/13 00:27:45;;;;;;;5.50;3.90;;;8.60;71.10;;;;;;5090827;28;20043;-71
2024/02/13 00:30:12;;;;;;;9.25;3.08;;;8.60;71.10;;;;;;5091578;28;20050;-71
2024/02/13 00:32:39;;;;;;;7.95;3.10;;;8.50;71.10;;;;;;5091025;28;20416;-71
2024/02/13 00:35:08;;;;;;;4.65;3.13;;;8.50;71.40;;;;;;5090763;28;20063;-71
2024/02/13 00:37:53;;;;;;;5.65;3.20;;;8.60;71.30;;;;;;5091006;28;20032;-71
2024/02/13 00:40:19;;;;;;;11.38;5.68;;;8.60;71.60;;;;;;5091645;28;20056;-71
2024/02/13 00:42:45;;;;;;;7.93;4.28;;;8.50;71.40;;;;;;5091937;28;20040;-71
2024/02/13 00:45:11;;;;;;;3.20;1.92;;;8.50;72.40;;;;;;5091993;28;20032;-71
2024/02/13 00:47:40;;;;;;;5.20;3.10;;;8.50;71.70;;;;;;5090412;28;20074;-71
2024/02/13 00:50:08;;;;;;;7.30;3.67;;;8.40;71.10;;;;;;5090225;28;20036;-70
2024/02/13 00:52:39;;;;;;;8.13;3.88;;;8.40;71.70;;;;;;5091895;28;20036;-70
2024/02/13 00:55:09;;;;;;;10.05;3.25;;;8.30;72.20;;;;;;5090777;28;20039;-71
2024/02/13 00:57:36;;;;;;;2.90;1.98;;;8.20;72.30;;;;;;5091939;28;20044;-71
2024/02/13 01:00:10;;;;;;;4.07;1.80;;;8.20;72.30;;;;;;5091669;28;20067;-71
2024/02/13 01:02:36;;;;;;;3.97;2.33;;;8.20;72.10;;;;;;5091382;28;20063;-71
2024/02/13 01:05:02;;;;;;;1.58;0.88;;;8.20;72.60;;;;;;5090685;28;20389;-71
2024/02/13 01:07:30;;;;;;;3.60;1.98;;;8.10;72.40;;;;;;5090427;28;20036;-71
2024/02/13 01:09:56;;;;;;;3.75;2.00;;;8.10;72.40;;;;;;5089574;28;20451;-70
2024/02/13 01:12:22;;;;;;;1.92;1.25;;;8.10;72.40;;;;;;5091216;28;20032;-71
2024/02/13 01:14:48;;;;;;;3.30;2.60;;;8.10;72.50;;;;;;5091707;28;20040;-71
2024/02/13 01:17:14;;;;;;;2.75;1.90;;;8.00;72.30;;;;;;5091606;28;20032;-71
2024/02/13 01:19:40;;;;;;;4.82;2.78;;;8.00;72.40;;;;;;5090278;28;20039;-70
2024/02/13 01:22:06;;;;;;;4.15;2.53;;;8.00;72.30;;;;;;5091120;28;20089;-71
2024/02/13 01:24:33;;;;;;;4.07;3.67;;;8.00;72.30;;;;;;5091819;28;20059;-71
2024/02/13 01:26:59;;;;;;;3.45;2.05;;;8.00;72.40;;;;;;5091478;28;20036;-71
2024/02/13 01:29:25;;;;;;;4.35;2.67;;;7.90;72.60;;;;;;5090265;28;20134;-71
2024/02/13 01:31:51;;;;;;;2.95;2.40;;;7.90;72.70;;;;;;5089778;28;20489;-71
2024/02/13 01:34:17;;;;;;;3.03;1.83;;;7.90;72.70;;;;;;5090338;28;20036;-71
2024/02/13 01:36:43;;;;;;;2.80;1.75;;;7.80;72.80;;;;;;5090007;28;20542;-71
2024/02/13 01:39:09;;;;;;;7.93;3.28;;;7.70;72.90;;;;;;5089927;28;20128;-70
2024/02/13 01:41:35;;;;;;;;;;;7.70;73.00;;;;;;5091354;28;20036;-71
2024/02/13 01:44:04;;;;;;;7.50;5.13;;;7.70;72.70;;;;;;5089917;28;19920;-71
2024/02/13 01:46:33;;;;;;;5.63;2.88;;;7.70;72.10;;;;;;5091381;28;20029;-71
2024/02/13 01:49:00;;;;;;;3.75;2.38;;;7.70;72.70;;;;;;5089894;28;20036;-71
2024/02/13 01:51:29;;;;;;;3.42;2.75;;;7.60;72.20;;;;;;5089368;28;20040;-71
2024/02/13 01:54:15;;;;;;;2.85;1.38;;;7.60;72.80;;;;;;5090052;28;20040;-71
2024/02/13 01:56:42;;;;;;;10.82;3.75;;;7.50;72.60;;;;;;5090038;28;20077;-71
2024/02/13 01:59:08;;;;;;;2.65;2.20;;;7.40;73.20;;;;;;5089734;28;20051;-71
2024/02/13 02:01:36;;;;;;;5.07;2.60;;;7.40;73.30;;;;;;5089409;28;20059;-71
2024/02/13 02:04:05;;;;;;;4.15;2.25;;;7.40;73.30;;;;;;5089846;28;20660;-71
2024/02/13 02:06:33;;;;;;;2.83;1.80;;;7.30;73.20;;;;;;5091198;28;20028;-71
2024/02/13 02:09:00;;;;;;;3.67;2.00;;;7.30;73.10;;;;;;5089722;28;20035;-71
2024/02/13 02:11:26;;;;;;;4.90;2.38;;;7.30;73.10;;;;;;5089193;28;20038;-71
2024/02/13 02:13:52;;;;;;;5.70;2.63;;;7.30;73.00;;;;;;5091282;28;20040;-71
2024/02/13 02:16:18;;;;;;;2.92;1.85;;;7.20;73.00;;;;;;5087651;28;20032;-71
2024/02/13 02:18:44;;;;;;;7.20;2.22;;;7.10;73.10;;;;;;5089087;28;20036;-71
2024/02/13 02:21:11;;;;;;;1.25;0.93;;;7.10;73.10;;;;;;5090342;28;20510;-71
2024/02/13 02:23:37;;;;;;;2.33;1.35;;;7.00;73.30;;;;;;5095287;28;20476;-70
2024/02/13 02:26:06;;;;;;;4.25;1.67;;;6.90;73.60;;;;;;5095055;28;20044;-71
2024/02/13 02:28:33;;;;;;;2.60;2.10;;;6.80;73.60;;;;;;5076765;28;20028;-71
2024/02/13 02:30:59;;;;;;;1.90;1.10;;;6.60;73.70;;;;;;5092964;28;20148;-71
2024/02/13 02:33:25;;;;;;;20.60;3.15;;;6.50;74.20;;;;;;5095094;28;20476;-71
2024/02/13 02:35:53;;;;;;;2.95;1.98;;;6.50;74.40;;;;;;5093404;28;20044;-71
2024/02/13 02:38:20;;;;;;;2.28;1.33;;;6.50;74.50;;;;;;5092890;28;20032;-71
2024/02/13 02:40:47;;;;;;;2.20;1.15;;;6.40;74.40;;;;;;5092473;28;20411;-71
2024/02/13 02:43:14;;;;;;;0.57;0.38;;;6.40;74.50;;;;;;5093199;28;20065;-71
2024/02/13 02:45:40;;;;;;;2.00;1.00;;;6.30;74.30;;;;;;5094198;28;20401;-71
2024/02/13 02:48:07;;;;;;;2.28;0.90;;;6.30;74.30;;;;;;5094378;28;20040;-70
2024/02/13 02:50:34;;;;;;;1.90;0.90;;;6.20;74.30;;;;;;5092112;28;20109;-71
2024/02/13 02:53:01;;;;;;;1.20;0.80;;;6.20;74.50;;;;;;5092927;28;20036;-71
2024/02/13 02:55:27;;;;;;;3.92;2.78;;;6.10;74.30;;;;;;5092958;28;20032;-71
2024/02/13 02:57:53;;;;;;;3.65;1.95;;;6.10;74.70;;;;;;5092511;28;20438;-71
2024/02/13 03:00:20;;;;;;;6.10;3.25;;;6.10;74.90;;;;;;5092392;28;20442;-71
2024/02/13 03:02:47;;;;;;;4.03;1.63;;;6.10;74.70;;;;;;5092564;28;20062;-71
2024/02/13 03:05:13;;;;;;;1.67;1.15;;;6.10;74.60;;;;;;5092600;28;20081;-71
2024/02/13 03:07:39;;;;;;;4.25;2.22;;;6.10;74.00;;;;;;5092413;28;20038;-71
2024/02/13 03:10:08;;;;;;;3.45;2.92;;;6.00;74.60;;;;;;5093212;28;20043;-71
2024/02/13 03:12:35;;;;;;;2.55;1.55;;;6.00;74.60;;;;;;5093796;28;20036;-70
2024/02/13 03:15:02;;;;;;;1.40;1.02;;;5.90;74.80;;;;;;5094055;28;20397;-71
2024/02/13 03:17:28;;;;;;;3.20;2.10;;;5.90;74.30;;;;;;5075520;28;20392;-71
2024/02/13 03:19:54;;;;;;;5.35;1.90;;;5.90;75.10;;;;;;5092414;28;20176;-71
2024/02/13 03:22:20;;;;;;;1.65;1.30;;;5.80;75.10;;;;;;5074779;28;20033;-71
2024/02/13 03:24:47;;;;;;;1.13;0.75;;;5.80;75.10;;;;;;5093820;28;20032;-71
2024/02/13 03:27:14;;;;;;;2.58;1.27;;;5.80;75.00;;;;;;5093404;28;20179;-71
2024/02/13 03:29:41;;;;;;;3.60;2.78;;;5.80;75.00;;;;;;5091852;28;20024;-71
2024/02/13 03:32:07;;;;;;;2.65;1.17;;;5.80;74.60;;;;;;5090684;28;20055;-70
2024/02/13 03:34:33;;;;;;;1.75;1.15;;;5.70;74.40;;;;;;5093591;28;20040;-71
2024/02/13 03:36:59;;;;;;;1.38;0.93;;;5.60;73.60;;;;;;5074763;28;20464;-71
2024/02/13 03:39:26;;;;;;;0.57;0.50;;;5.50;74.10;;;;;;5091518;28;20397;-70
2024/02/13 03:41:52;;;;;;;1.10;0.98;;;5.40;73.80;;;;;;5092350;28;20382;-71
2024/02/13 03:44:19;;;;;;;1.13;0.88;;;5.40;73.90;;;;;;5092991;28;20043;-71
2024/02/13 03:46:45;;;;;;;7.03;1.38;;;5.40;73.90;;;;;;5092687;28;20546;-71
2024/02/13 03:49:11;;;;;;;2.67;0.85;;;5.40;73.90;;;;;;5092021;28;20081;-71
2024/02/13 03:51:59;;;;;;;1.58;0.77;;;5.30;73.80;;;;;;5091047;28;20036;-71
2024/02/13 03:54:25;;;;;;;1.55;1.13;;;5.30;73.70;;;;;;5093042;28;20119;-71
2024/02/13 03:56:51;;;;;;;2.78;1.50;;;5.20;73.30;;;;;;5091496;28;20060;-71
2024/02/13 03:59:17;;;;;;;3.30;1.48;;;5.20;73.70;;;;;;5092532;28;20040;-70
2024/02/13 04:01:44;;;;;;;1.20;0.70;;;5.20;73.50;;;;;;5092092;28;20054;-70
2024/02/13 04:04:10;;;;;;;0.65;0.30;;;5.20;73.60;;;;;;5092533;28;20443;-71
2024/02/13 04:06:36;;;;;;;1.63;0.90;;;5.10;73.70;;;;;;5092529;28;20048;-71
2024/02/13 04:09:03;;;;;;;2.45;1.55;;;5.10;73.60;;;;;;5090876;28;20024;-71
2024/02/13 04:11:50;;;;;;;8.27;1.35;;;5.10;73.60;;;;;;5073241;28;20040;-70
2024/02/13 04:14:18;;;;;;;0.82;0.75;;;5.10;73.80;;;;;;5092504;28;20039;-71
2024/02/13 04:16:44;;;;;;;1.77;1.33;;;5.00;73.80;;;;;;5090936;28;20039;-70
2024/02/13 04:19:12;;;;;;;1.08;0.47;;;5.00;74.80;;;;;;5091059;28;20040;-70
2024/02/13 04:21:38;;;;;;;1.98;0.70;;;4.90;74.10;;;;;;5092156;28;20032;-71
2024/02/13 04:24:06;;;;;;;0.70;0.40;;;4.90;74.20;;;;;;5092492;28;20030;-71
2024/02/13 04:26:33;;;;;;;1.55;1.08;;;4.80;74.20;;;;;;5091222;28;20048;-70
2024/02/13 04:28:59;;;;;;;0.88;0.50;;;4.80;74.10;;;;;;5090705;28;20063;-70
2024/02/13 04:31:26;;;;;;;3.83;1.02;;;4.80;74.30;;;;;;5091664;28;20553;-70
2024/02/13 04:33:52;;;;;;;1.75;0.63;;;4.80;74.20;;;;;;5090630;28;20039;-70
2024/02/13 04:36:18;;;;;;;1.67;0.75;;;4.70;73.90;;;;;;5092047;28;20066;-71
2024/02/13 04:38:44;;;;;;;;;;;4.70;73.70;;;;;;5092258;28;20123;-70
2024/02/13 04:41:10;;;;;;;1.88;0.73;;;4.70;73.60;;;;;;5091385;28;19923;-71
2024/02/13 04:43:36;;;;;;;0.20;0.20;;;4.70;73.70;;;;;;5090637;28;20109;-71
2024/02/13 04:46:02;;;;;;;1.67;0.77;;;4.60;73.70;;;;;;5091992;28;20089;-70
2024/02/13 04:48:30;;;;;;;0.70;0.60;;;4.60;73.90;;;;;;5090966;28;20036;-71
2024/02/13 04:50:56;;;;;;;1.88;0.77;;;4.60;73.80;;;;;;5089648;28;20032;-70
2024/02/13 04:53:23;;;;;;;4.03;1.48;;;4.70;73.80;;;;;;5091530;28;20352;-71
2024/02/13 04:55:49;;;;;;;2.30;0.47;;;4.60;73.70;;;;;;5090179;28;20059;-71
2024/02/13 05:08:59;;;;;;;5.63;1.50;;;4.60;73.60;;;;;;5069905;28;20109;-70
2024/02/13 05:11:25;;;;;;;2.80;1.65;;;4.70;73.60;;;;;;5060131;28;20500;-71
2024/02/13 05:13:52;;;;;;;1.10;1.00;;;4.70;73.30;;;;;;5091105;28;20032;-71
2024/02/13 05:16:18;;;;;;;1.35;1.08;;;4.70;72.90;;;;;;5091175;28;20411;-70
2024/02/13 05:19:06;;;;;;;2.10;1.13;;;4.70;72.90;;;;;;5089795;28;20044;-71
2024/02/13 05:21:35;;;;;;;2.58;0.65;;;4.70;72.70;;;;;;5091136;28;21585;-70
2024/02/13 05:24:03;;;;;;;2.97;0.90;;;4.70;72.70;;;;;;5090226;28;20058;-71
2024/02/13 05:26:30;;;;;;;1.15;0.68;;;4.70;72.60;;;;;;5073264;28;20392;-71
2024/02/13 05:28:56;;;;;;;4.18;1.65;;;4.70;72.50;;;;;;5090086;28;20451;-71
2024/02/13 05:31:23;;;;;;;;;;;4.70;72.60;;;;;;5089930;28;20063;-71
2024/02/13 05:34:09;;;;;;;2.58;1.65;;;4.70;71.90;;;;;;5089686;28;19920;-71
2024/02/13 05:36:35;;;;;;;3.50;2.13;;;4.70;72.20;;;;;;5090880;28;20025;-71
2024/02/13 05:39:03;;;;;;;4.00;2.05;;;4.70;72.30;;;;;;5090547;28;20428;-71
2024/02/13 05:41:29;;;;;;;3.25;2.05;;;4.70;72.40;;;;;;5090607;28;20039;-71
2024/02/13 05:43:55;;;;;;;3.45;1.90;;;4.70;71.70;;;;;;5089953;28;20063;-71
2024/02/13 05:46:22;;;;;;;1.90;1.13;;;4.70;72.40;;;;;;5091411;28;20036;-71
2024/02/13 05:48:49;;;;;;;2.03;1.02;;;4.70;72.40;;;;;;5089682;28;20063;-71
2024/02/13 05:51:15;;;;;;;3.13;1.15;;;4.70;72.40;;;;;;5089044;28;20090;-71
2024/02/13 05:53:41;;;;;;;0.60;0.45;;;4.60;71.80;;;;;;5090825;28;20063;-71
2024/02/13 05:56:08;;;;;;;2.70;1.70;;;4.60;71.40;;;;;;5092488;28;20441;-71
2024/02/13 05:58:34;;;;;;;1.13;0.90;;;4.60;70.90;;;;;;5095264;28;20031;-71
2024/02/13 06:01:00;;;;;;;2.10;1.00;;;4.50;71.00;;;;;;5093267;28;20501;-71
2024/02/13 06:03:26;;;;;;;0.98;0.63;;;4.50;71.20;;;;;;5076444;28;20151;-71
2024/02/13 06:05:54;;;;;;;1.88;0.93;;;4.40;70.80;;;;;;5093580;28;20036;-70
2024/02/13 06:08:20;;;;;;;0.73;0.63;;;4.40;71.00;;;;;;5093644;28;20028;-71
2024/02/13 06:10:47;;;;;;;1.95;1.35;;;4.40;71.20;;;;;;5075923;28;20032;-70
2024/02/13 06:13:14;;;;;;;;;;;4.30;70.60;;;;;;5095837;28;20060;-71
2024/02/13 06:15:40;;;;;;;3.95;2.63;;;4.40;71.20;;;;;;5094777;28;19912;-71
2024/02/13 06:18:06;;;;;;;6.40;3.08;;;4.40;71.40;;;;;;5094884;28;20052;-71
2024/02/13 06:20:33;;;;;;;;;;;4.50;71.50;;;;;;5076502;28;20036;-71
2024/02/13 06:22:59;;;;;;;2.83;2.03;;;4.50;71.70;;;;;;5093230;28;19965;-71
2024/02/13 06:25:25;;;;;;;4.82;3.00;;;4.50;71.60;;;;;;5110215;28;20032;-71
2024/02/13 06:27:51;;;;;;;8.07;2.95;;;4.60;71.40;;;;;;5094411;28;20048;-71
2024/02/13 06:30:17;;;;;;;6.63;3.72;;;4.60;71.40;;;;;;5075748;28;20074;-71
2024/02/13 06:32:43;;;;;;;3.70;2.58;;;4.70;71.20;;;;;;5094534;28;20071;-71
2024/02/13 06:35:10;;;;;;;2.63;1.75;;;4.70;71.00;;;;;;5094482;28;20028;-71
2024/02/13 06:37:39;;;;;;;2.33;0.95;;;4.70;71.00;;;;;;5092988;28;20439;-70
2024/02/13 06:40:07;;;;;;;6.35;4.35;;;4.70;71.10;;;;;;5093670;28;20032;-71
2024/02/13 06:42:34;;;;;;;6.70;3.97;;;4.70;71.10;;;;;;5094340;28;20047;-71
2024/02/13 06:45:00;;;;;;;3.65;2.30;;;4.80;71.30;;;;;;5094135;28;20020;-71
2024/02/13 06:47:26;;;;;;;4.70;2.75;;;4.80;71.30;;;;;;5076110;28;20050;-70
2024/02/13 06:49:52;;;;;;;7.80;5.88;;;4.80;71.30;;;;;;5092673;28;20036;-70
2024/02/13 06:52:19;;;;;;;7.88;5.03;;;4.80;71.40;;;;;;5093555;28;20044;-71
2024/02/13 06:54:45;;;;;;;6.93;4.35;;;4.80;71.40;;;;;;5092466;28;20094;-71
2024/02/13 06:57:11;;;;;;;;;;;4.90;71.30;;;;;;5093061;28;20036;-71
2024/02/13 06:59:37;;;;;;;9.68;4.57;;;4.90;71.50;;;;;;5093576;28;19998;-71
2024/02/13 07:02:04;;;;;;;7.43;4.30;;;4.80;71.50;;;;;;5093232;28;20036;-71
2024/02/13 07:04:30;;;;;;;;;;;4.80;71.10;;;;;;5094510;28;20060;-71
2024/02/13 07:06:57;;;;;;;8.10;4.85;;;4.80;71.70;;;;;;5092783;28;20448;-70
2024/02/13 07:09:23;;;;;;;16.05;7.32;;;4.80;71.60;;;;;;5093361;28;20035;-71
2024/02/13 07:11:50;;;;;;;20.83;10.35;;;4.80;71.90;;;;;;5093299;28;20405;-71
2024/02/13 07:14:17;;;;;;;8.07;5.80;;;4.80;71.90;;;;;;5092490;28;20028;-71
2024/02/13 07:16:44;;;;;;;12.70;7.55;;;4.80;71.80;;;;;;5092099;28;20044;-71
2024/02/13 07:19:10;;;;;;;8.48;4.57;;;4.80;71.90;;;;;;5093922;28;20024;-71
2024/02/13 07:21:37;;;;;;;11.20;5.15;;;4.80;72.00;;;;;;5092983;28;20051;-71
2024/02/13 07:24:03;;;;;;;14.25;4.38;;;4.80;71.90;;;;;;5093361;28;20055;-71
2024/02/13 07:26:29;;;;;;;6.53;3.45;;;4.80;71.30;;;;;;5093322;28;20036;-71
2024/02/13 07:28:55;;;;;;;3.03;1.63;;;4.80;72.10;;;;;;5074938;28;20085;-71
2024/02/13 07:31:21;;;;;;;3.28;1.98;;;4.80;72.00;;;;;;5091310;28;20036;-71
2024/02/13 07:33:48;;;;;;;5.82;2.90;;;4.80;73.00;;;;;;5093036;28;20028;-71
2024/02/13 07:36:14;;;;;;;10.55;5.18;;;4.80;72.10;;;;;;5091833;28;20485;-71
2024/02/13 07:38:40;;;;;;;15.48;8.38;;;4.90;72.10;;;;;;5092764;28;20035;-71
2024/02/13 07:41:09;;;;;;;11.95;8.75;;;4.90;73.50;;;;;;5092656;28;20077;-71
2024/02/13 07:43:35;;;;;;;14.50;11.05;;;5.00;72.80;;;;;;5093385;28;20477;-71
2024/02/13 07:46:03;;;;;;;14.05;8.80;;;5.00;73.60;;;;;;5091653;28;20085;-71
2024/02/13 07:48:31;;;;;;;13.68;9.32;;;5.10;73.30;;;;;;5093179;28;20503;-71
2024/02/13 07:50:57;;;;;;;13.98;7.15;;;5.10;73.30;;;;;;5073845;28;20036;-71
2024/02/13 07:53:24;;;;;;;8.68;6.22;;;5.20;73.00;;;;;;5074803;28;20059;-71
2024/02/13 07:55:50;;;;;;;8.25;5.75;;;5.30;73.10;;;;;;5092545;28;20036;-70
2024/02/13 07:58:16;;;;;;;11.25;5.90;;;5.40;72.90;;;;;;5091109;28;20040;-71
2024/02/13 08:00:43;;;;;;;7.30;4.70;;;5.40;72.80;;;;;;5090754;28;20106;-72
2024/02/13 08:03:11;;;;;;;12.23;7.90;;;5.50;72.70;;;;;;5091246;28;20040;-71
2024/02/13 08:05:39;;;;;;;9.05;7.10;;;5.60;72.50;;;;;;5092452;28;20032;-71
2024/02/13 08:08:10;;;;;;;12.40;6.45;;;5.70;73.00;;;;;;5091268;28;20043;-71
2024/02/13 08:10:38;;;;;;;3.42;2.40;;;5.80;73.10;;;;;;5090697;28;20536;-71
2024/02/13 08:13:04;;;;;;;6.78;4.88;;;6.00;73.00;;;;;;5091126;28;20127;-70
2024/02/13 08:15:30;;;;;;;7.00;3.75;;;6.10;74.00;;;;;;5091081;28;20092;-71
2024/02/13 08:17:58;;;;;;;7.15;4.00;;;6.30;73.90;;;;;;5092298;28;20055;-71
2024/02/13 08:20:24;;;;;;;9.45;4.53;;;6.50;73.30;;;;;;5090300;28;20032;-71
2024/02/13 08:22:51;;;;;;;4.45;3.25;;;6.70;73.30;;;;;;5092299;28;20040;-71
2024/02/13 08:25:17;;;;;;;;;;;6.90;73.30;;;;;;5108490;28;20024;-71
2024/02/13 08:27:43;;;;;;;4.93;3.35;;;7.10;73.00;;;;;;5092007;28;20030;-71
2024/02/13 08:30:12;;;;;;;11.85;4.43;;;7.20;72.20;;;;;;5091635;28;20503;-71
2024/02/13 08:32:41;;;;;;;6.35;3.72;;;7.40;71.20;;;;;;5092356;28;20131;-71
2024/02/13 08:35:09;;;;;;;8.55;4.78;;;7.60;71.40;;;;;;5092036;28;20028;-71
2024/02/13 08:37:36;;;;;;;7.70;3.33;;;7.70;71.20;;;;;;5090662;28;20041;-71
2024/02/13 08:40:04;;;;;;;8.10;5.05;;;8.00;70.80;;;;;;5073674;28;20036;-71
2024/02/13 08:42:34;;;;;;;13.48;4.20;;;8.20;70.40;;;;;;5069997;28;20460;-71
2024/02/13 08:45:01;;;;;;;8.68;2.50;;;8.70;69.70;;;;;;5070405;28;20055;-71
2024/02/13 08:47:27;;;;;;;15.90;3.65;;;8.80;69.00;;;;;;5070202;28;20047;-71
2024/02/13 08:49:53;;;;;;;;;;;8.90;68.90;;;;;;5070897;28;20043;-71
2024/02/13 08:52:19;;;;;;;7.43;2.15;;;9.00;69.60;;;;;;5070797;28;19948;-71
2024/02/13 08:54:46;;;;;;;0.93;0.77;;;9.10;69.20;;;;;;5053467;28;20521;-71
2024/02/13 08:57:14;;;;;;;;;;;9.50;68.90;;;;;;5070461;28;20422;-71
2024/02/13 08:59:41;;;;;;;3.10;2.65;;;9.80;67.90;;;;;;5071139;28;20374;-71
2024/02/13 09:02:08;;;;;;;3.60;2.33;;;10.10;66.90;;;;;;5069973;28;20036;-71
2024/02/13 09:07:21;;;;;;;2.47;1.90;;;11.00;65.10;;;;;;5090489;28;20044;-71
2024/02/13 09:09:47;;;;;;;4.38;2.22;;;11.60;63.70;;;;;;5107198;28;20034;-71
2024/02/13 09:12:13;;;;;;;2.17;1.17;;;11.90;63.50;;;;;;5091258;28;20044;-71
2024/02/13 09:14:39;;;;;;;3.08;1.52;;;12.10;62.90;;;;;;5090223;28;20040;-71
2024/02/13 09:17:05;;;;;;;10.07;4.13;;;12.30;62.10;;;;;;5091188;28;20050;-71
2024/02/13 09:19:31;;;;;;;4.50;2.42;;;12.50;60.50;;;;;;5091117;28;20036;-71
2024/02/13 09:21:57;;;;;;;2.10;1.60;;;12.60;60.30;;;;;;5089509;28;20098;-71
2024/02/13 09:24:25;;;;;;;5.80;3.70;;;13.00;58.50;;;;;;5091540;28;20039;-71
2024/02/13 09:26:54;;;;;;;6.65;1.80;;;13.00;57.10;;;;;;5090969;28;20507;-71
2024/02/13 09:29:20;;;;;;;5.75;4.38;;;13.10;57.10;;;;;;5089788;28;20393;-71
2024/02/13 09:31:46;;;;;;;2.40;1.83;;;13.20;56.60;;;;;;5088426;28;20546;-71
2024/02/13 09:34:14;;;;;;;1.75;0.93;;;13.30;56.60;;;;;;5090014;28;20020;-71
2024/02/13 09:36:40;;;;;;;4.38;2.40;;;13.40;56.20;;;;;;5089786;28;20044;-71
2024/02/13 09:39:08;;;;;;;1.23;0.82;;;13.60;56.40;;;;;;5090849;28;20064;-71
2024/02/13 09:41:36;;;;;;;0.73;0.60;;;13.80;55.70;;;;;;5090630;28;20123;-71
2024/02/13 09:44:03;;;;;;;0.47;0.45;;;13.90;54.90;;;;;;5091025;28;20036;-71
2024/02/13 09:46:31;;;;;;;1.15;0.70;;;14.00;53.90;;;;;;5090078;28;20396;-71
2024/02/13 09:48:59;;;;;;;0.22;0.22;;;14.20;52.60;;;;;;5090767;28;20104;-71
2024/02/13 09:51:27;;;;;;;0.75;0.65;;;14.20;51.80;;;;;;5089278;28;20105;-71
2024/02/13 09:53:55;;;;;;;1.55;0.95;;;14.40;51.20;;;;;;5089726;28;20040;-71
2024/02/13 09:56:21;;;;;;;2.10;0.95;;;14.70;50.20;;;;;;5090916;28;20081;-71
2024/02/13 09:58:47;;;;;;;;;;;14.90;49.60;;;;;;5089733;28;20182;-71
2024/02/13 10:01:14;;;;;;;2.75;2.20;;;15.20;50.00;;;;;;5090551;28;20396;-71
2024/02/13 10:03:41;;;;;;;2.00;1.48;;;15.90;47.60;;;;;;5090497;28;20124;-71
2024/02/13 10:06:07;;;;;;;0.52;0.22;;;16.60;45.50;;;;;;5090904;28;20062;-71
2024/02/13 10:08:37;;;;;;;1.20;1.10;;;16.90;44.80;;;;;;5090983;28;20091;-71
2024/02/13 10:11:08;;;;;;;3.95;2.45;;;17.20;41.90;;;;;;5090353;28;20040;-71
2024/02/13 10:13:54;;;;;;;1.95;1.00;;;17.40;38.60;;;;;;5089571;28;20064;-71
2024/02/13 10:16:39;;;;;;;0.77;0.63;;;17.30;40.40;;;;;;5089409;28;20032;-71
2024/02/13 10:19:05;;;;;;;0.20;0.20;;;17.00;40.10;;;;;;5089322;28;20043;-71
2024/02/13 10:21:31;;;;;;;;;;;16.70;40.80;;;;;;5089453;28;20036;-71
2024/02/13 10:24:16;;;;;;;0.45;0.35;;;16.80;41.50;;;;;;5089349;28;19954;-71
2024/02/13 10:26:43;;;;;;;0.63;0.57;;;17.10;39.40;;;;;;5090549;28;20028;-71
2024/02/13 10:29:09;;;;;;;1.27;1.13;;;17.00;38.90;;;;;;5106080;28;20043;-71
2024/02/13 10:31:35;;;;;;;0.35;0.25;;;16.90;39.40;;;;;;5088859;28;20413;-71
2024/02/13 10:34:22;;;;;;;0.10;0.10;;;16.80;39.60;;;;;;5089366;28;20066;-71
2024/02/13 10:36:48;;;;;;;0.10;0.10;;;17.00;38.80;;;;;;5090551;28;20480;-71
2024/02/13 10:39:20;;;;;;;0.08;0.08;;;17.30;36.50;;;;;;5089118;28;20123;-71
2024/02/13 10:41:48;;;;;;;5.82;1.23;;;17.20;37.10;;;;;;5072651;28;20082;-71
2024/02/13 10:44:21;;;;;;;0.22;0.20;;;17.10;37.20;;;;;;5093082;28;20542;-71
2024/02/13 10:46:49;;;;;;;3.05;1.95;;;17.10;36.60;;;;;;5094054;28;20036;-72
2024/02/13 10:49:33;;;;;;;0.85;0.43;;;17.30;36.30;;;;;;5092778;28;20434;-72
2024/02/13 10:51:59;;;;;;;0.35;0.35;;;17.70;36.20;;;;;;5093616;28;20094;-71
2024/02/13 10:54:26;;;;;;;5.05;1.77;;;18.40;34.70;;;;;;5092701;28;20028;-71
2024/02/13 10:56:54;;;;;;;2.30;1.67;;;18.50;34.30;;;;;;5092424;28;20028;-71
2024/02/13 10:59:23;;;;;;;2.92;1.25;;;18.70;33.10;;;;;;5092326;28;20028;-71
2024/02/13 11:01:51;;;;;;;0.70;0.50;;;18.70;32.80;;;;;;5091930;28;20421;-71
2024/02/13 11:04:19;;;;;;;2.03;0.68;;;18.40;33.70;;;;;;5092581;28;20072;-71
2024/02/13 11:06:46;;;;;;;1.35;0.63;;;18.10;33.80;;;;;;5092463;28;20481;-72
2024/02/13 11:09:12;;;;;;;0.68;0.40;;;17.90;34.00;;;;;;5092450;28;20024;-72
2024/02/13 11:11:43;;;;;;;1.02;0.57;;;18.80;33.20;;;;;;5093004;28;20044;-71
2024/02/13 11:14:28;;;;;;;0.50;0.50;;;19.50;32.50;;;;;;5092749;28;20040;-71
2024/02/13 11:17:13;;;;;;;1.05;0.45;;;19.60;31.00;;;;;;5092092;28;20037;-71
2024/02/13 11:19:46;;;;;;;0.55;0.40;;;19.10;31.20;;;;;;5092168;28;20035;-71
2024/02/13 11:22:23;;;;;;;0.88;0.82;;;19.00;30.60;;;;;;5091601;28;20048;-71
2024/02/13 11:27:40;;;;;;;1.90;0.70;;;18.30;32.10;;;;;;5092218;28;20059;-71
2024/02/13 11:30:07;;;;;;;0.75;0.30;;;18.20;31.80;;;;;;5091764;28;20753;-72
2024/02/13 11:35:58;;;;;;;1.02;0.75;;;17.90;32.90;;;;;;5091969;28;20093;-71
2024/02/13 11:38:27;;;;;;;1.08;0.75;;;18.00;32.20;;;;;;5093258;28;20047;-71
2024/02/13 11:40:57;;;;;;;1.23;1.17;;;18.00;32.20;;;;;;5092509;28;20058;-72
2024/02/13 11:43:24;;;;;;;1.50;0.88;;;18.00;32.90;;;;;;5092813;28;20032;-71
2024/02/13 11:45:51;;;;;;;0.47;0.47;;;18.20;32.80;;;;;;5091729;28;20036;-72
2024/02/13 11:48:20;;;;;;;0.85;0.75;;;18.60;32.00;;;;;;5093014;28;20040;-72
2024/02/13 11:50:46;;;;;;;1.65;0.85;;;19.50;31.30;;;;;;5090992;28;20115;-72
2024/02/13 11:53:17;;;;;;;0.30;0.30;;;19.80;30.30;;;;;;5090635;28;20117;-72
2024/02/13 11:55:45;;;;;;;0.35;0.30;;;19.60;30.20;;;;;;5092820;28;20032;-71
2024/02/13 11:58:31;;;;;;;3.00;1.45;;;19.40;30.90;;;;;;5091343;28;20043;-72
2024/02/13 12:01:18;;;;;;;1.13;0.40;;;20.30;29.60;;;;;;5091070;28;20060;-71
2024/02/13 12:03:44;;;;;;;1.88;0.68;;;20.20;29.80;;;;;;5091101;28;21031;-72
2024/02/13 12:06:10;;;;;;;1.30;0.90;;;20.20;30.50;;;;;;5074489;28;20024;-72
2024/02/13 12:11:23;;;;;;;0.60;0.40;;;20.00;28.90;;;;;;5090867;28;20038;-72
2024/02/13 12:13:50;;;;;;;1.83;0.60;;;20.70;29.00;;;;;;5091145;28;20145;-72
2024/02/13 12:16:17;;;;;;;0.73;0.68;;;21.40;26.70;;;;;;5091172;28;20527;-72
2024/02/13 12:18:44;;;;;;;0.93;0.20;;;21.10;27.00;;;;;;5090937;28;20044;-72
2024/02/13 12:21:14;;;;;;;0.47;0.47;;;20.50;27.60;;;;;;5090585;28;20037;-71
2024/02/13 12:23:50;;;;;;;0.90;0.40;;;20.00;28.40;;;;;;5092422;28;20067;-71
2024/02/13 12:26:37;;;;;;;0.63;0.30;;;20.60;27.80;;;;;;5091062;28;20101;-71
2024/02/13 12:29:14;;;;;;;0.20;0.20;;;21.50;26.50;;;;;;5090764;28;20058;-72
2024/02/13 12:31:41;;;;;;;2.17;0.60;;;22.80;24.80;;;;;;5090366;28;20113;-72
2024/02/13 12:34:07;;;;;;;1.70;0.98;;;23.00;24.10;;;;;;5090893;28;20039;-71
2024/02/13 12:36:34;;;;;;;0.63;0.60;;;22.80;24.70;;;;;;5073868;28;20568;-71
2024/02/13 12:39:16;;;;;;;0.20;0.20;;;23.30;24.50;;;;;;5090413;28;20115;-72
2024/02/13 12:42:01;;;;;;;0.63;0.63;;;24.10;23.10;;;;;;5090234;28;20440;-71
2024/02/13 12:44:28;;;;;;;0.65;0.55;;;24.90;22.60;;;;;;5090718;28;20419;-72
2024/02/13 12:46:54;;;;;;;0.30;0.30;;;25.20;22.50;;;;;;5090564;28;20031;-72
2024/02/13 12:49:21;;;;;;;;;;;25.40;22.30;;;;;;5092222;28;20112;-72
2024/02/13 12:51:47;;;;;;;0.47;0.30;;;25.30;22.40;;;;;;5089738;28;19920;-72
2024/02/13 12:54:14;;;;;;;0.28;0.20;;;25.10;21.90;;;;;;5090464;28;20032;-72
2024/02/13 12:56:40;;;;;;;1.38;0.60;;;24.40;22.40;;;;;;5090523;28;20123;-72
2024/02/13 12:59:25;;;;;;;0.95;0.70;;;23.20;23.60;;;;;;5090006;28;20031;-72
2024/02/13 13:01:53;;;;;;;0.10;0.10;;;23.80;23.70;;;;;;5072745;28;20048;-72
2024/02/13 13:04:25;;;;;;;1.00;0.57;;;25.40;22.10;;;;;;5091498;28;20044;-72
2024/02/13 13:06:52;;;;;;;2.47;1.60;;;25.80;20.60;;;;;;5090219;28;20032;-72
2024/02/13 13:09:20;;;;;;;2.28;2.08;;;26.60;20.30;;;;;;5090013;28;20028;-71
2024/02/13 13:11:47;;;;;;;0.60;0.60;;;28.00;18.70;;;;;;5090753;28;20081;-72
2024/02/13 13:14:16;;;;;;;1.05;0.95;;;28.50;18.10;;;;;;5090135;28;20048;-71
2024/02/13 13:16:42;;;;;;;1.33;0.93;;;28.80;17.30;;;;;;5090113;28;20084;-72
2024/02/13 13:19:13;;;;;;;1.08;0.93;;;28.50;17.30;;;;;;5091256;28;20036;-72
2024/02/13 13:21:40;;;;;;;0.55;0.28;;;27.60;18.80;;;;;;5090911;28;20068;-72
2024/02/13 13:24:08;;;;;;;1.63;0.60;;;26.70;18.80;;;;;;5089933;28;20119;-72